sensor_id;sensor_type;location;lat;lon;timestamp;P1;durP1;ratioP1;P2;durP2;ratioP2
13335;SDS011;6737;51.480;11.962;2023-10-08T00:01:51;8.57;;;4.30;;
13335;SDS011;6737;51.480;11.962;2023-10-08T00:04:21;9.45;;;4.63;;
13335;SDS011;6737;51.480;11.962;2023-10-08T00:06:47;9.82;;;4.38;;
13335;SDS011;6737;51.480;11.962;2023-10-08T00:09:14;6.75;;;4.40;;
13335;SDS011;6737;51.480;11.962;2023-10-08T00:11:40;10.32;;;4.55;;
13335;SDS011;6737;51.480;11.962;2023-10-08T00:14:06;12.43;;;5.20;;
13335;SDS011;6737;51.480;11.962;2023-10-08T00:16:36;8.10;;;4.53;;
13335;SDS011;6737;51.480;11.962;2023-10-08T00:19:08;8.40;;;4.70;;
13335;SDS011;6737;51.480;11.962;2023-10-08T00:21:36;8.15;;;4.68;;
13335;SDS011;6737;51.480;11.962;2023-10-08T00:24:03;10.35;;;5.07;;
13335;SDS011;6737;51.480;11.962;2023-10-08T00:26:32;8.27;;;4.43;;
13335;SDS011;6737;51.480;11.962;2023-10-08T00:29:03;10.07;;;4.80;;
13335;SDS011;6737;51.480;11.962;2023-10-08T00:31:32;10.23;;;4.63;;
13335;SDS011;6737;51.480;11.962;2023-10-08T00:34:06;8.10;;;4.50;;
13335;SDS011;6737;51.480;11.962;2023-10-08T00:36:37;10.13;;;4.95;;
13335;SDS011;6737;51.480;11.962;2023-10-08T00:39:04;9.13;;;4.85;;
13335;SDS011;6737;51.480;11.962;2023-10-08T00:41:33;9.43;;;4.90;;
13335;SDS011;6737;51.480;11.962;2023-10-08T00:43:59;9.87;;;4.90;;
13335;SDS011;6737;51.480;11.962;2023-10-08T00:46:26;8.88;;;4.72;;
13335;SDS011;6737;51.480;11.962;2023-10-08T00:48:56;9.80;;;4.70;;
13335;SDS011;6737;51.480;11.962;2023-10-08T00:51:23;9.10;;;4.88;;
13335;SDS011;6737;51.480;11.962;2023-10-08T00:53:54;10.82;;;5.25;;
13335;SDS011;6737;51.480;11.962;2023-10-08T00:56:27;11.77;;;5.68;;
13335;SDS011;6737;51.480;11.962;2023-10-08T00:59:12;12.48;;;5.63;;
13335;SDS011;6737;51.480;11.962;2023-10-08T01:01:42;9.48;;;5.00;;
13335;SDS011;6737;51.480;11.962;2023-10-08T01:04:16;4.45;;;3.22;;
13335;SDS011;6737;51.480;11.962;2023-10-08T01:06:50;5.07;;;3.15;;
13335;SDS011;6737;51.480;11.962;2023-10-08T01:09:28;3.47;;;2.50;;
13335;SDS011;6737;51.480;11.962;2023-10-08T01:12:09;3.08;;;1.92;;
13335;SDS011;6737;51.480;11.962;2023-10-08T01:14:58;2.40;;;1.60;;
13335;SDS011;6737;51.480;11.962;2023-10-08T01:17:41;2.55;;;1.60;;
13335;SDS011;6737;51.480;11.962;2023-10-08T01:20:24;1.98;;;1.40;;
13335;SDS011;6737;51.480;11.962;2023-10-08T01:23:00;2.08;;;1.10;;
13335;SDS011;6737;51.480;11.962;2023-10-08T01:25:41;2.95;;;0.90;;
13335;SDS011;6737;51.480;11.962;2023-10-08T01:28:08;0.90;;;0.60;;
13335;SDS011;6737;51.480;11.962;2023-10-08T01:30:43;0.50;;;0.50;;
13335;SDS011;6737;51.480;11.962;2023-10-08T01:33:11;0.40;;;0.40;;
13335;SDS011;6737;51.480;11.962;2023-10-08T01:35:41;1.67;;;0.50;;
13335;SDS011;6737;51.480;11.962;2023-10-08T01:38:08;0.87;;;0.50;;
13335;SDS011;6737;51.480;11.962;2023-10-08T01:40:39;0.40;;;0.40;;
13335;SDS011;6737;51.480;11.962;2023-10-08T01:43:06;1.02;;;0.40;;
13335;SDS011;6737;51.480;11.962;2023-10-08T01:45:35;1.27;;;0.50;;
13335;SDS011;6737;51.480;11.962;2023-10-08T01:48:06;1.85;;;0.30;;
13335;SDS011;6737;51.480;11.962;2023-10-08T01:50:35;0.40;;;0.40;;
13335;SDS011;6737;51.480;11.962;2023-10-08T01:53:02;0.40;;;0.40;;
13335;SDS011;6737;51.480;11.962;2023-10-08T01:55:32;0.70;;;0.40;;
13335;SDS011;6737;51.480;11.962;2023-10-08T01:58:10;0.30;;;0.30;;
13335;SDS011;6737;51.480;11.962;2023-10-08T02:00:41;0.40;;;0.40;;
13335;SDS011;6737;51.480;11.962;2023-10-08T02:03:11;0.40;;;0.40;;
13335;SDS011;6737;51.480;11.962;2023-10-08T02:05:41;0.40;;;0.40;;
13335;SDS011;6737;51.480;11.962;2023-10-08T02:08:08;0.40;;;0.40;;
13335;SDS011;6737;51.480;11.962;2023-10-08T02:10:36;0.75;;;0.30;;
13335;SDS011;6737;51.480;11.962;2023-10-08T02:13:03;0.40;;;0.40;;
13335;SDS011;6737;51.480;11.962;2023-10-08T02:15:30;0.35;;;0.35;;
13335;SDS011;6737;51.480;11.962;2023-10-08T02:17:56;0.40;;;0.40;;
13335;SDS011;6737;51.480;11.962;2023-10-08T02:20:24;0.40;;;0.40;;
13335;SDS011;6737;51.480;11.962;2023-10-08T02:22:49;0.30;;;0.30;;
13335;SDS011;6737;51.480;11.962;2023-10-08T02:25:15;0.40;;;0.40;;
13335;SDS011;6737;51.480;11.962;2023-10-08T02:27:41;0.30;;;0.30;;
13335;SDS011;6737;51.480;11.962;2023-10-08T02:30:07;0.40;;;0.40;;
13335;SDS011;6737;51.480;11.962;2023-10-08T02:32:35;0.40;;;0.40;;
13335;SDS011;6737;51.480;11.962;2023-10-08T02:35:08;0.40;;;0.40;;
13335;SDS011;6737;51.480;11.962;2023-10-08T02:37:36;0.40;;;0.40;;
13335;SDS011;6737;51.480;11.962;2023-10-08T02:40:06;0.40;;;0.40;;
13335;SDS011;6737;51.480;11.962;2023-10-08T02:42:56;0.50;;;0.50;;
13335;SDS011;6737;51.480;11.962;2023-10-08T02:45:26;0.40;;;0.40;;
13335;SDS011;6737;51.480;11.962;2023-10-08T02:47:53;0.37;;;0.37;;
13335;SDS011;6737;51.480;11.962;2023-10-08T02:50:20;0.40;;;0.40;;
13335;SDS011;6737;51.480;11.962;2023-10-08T02:52:48;2.50;;;0.50;;
13335;SDS011;6737;51.480;11.962;2023-10-08T02:55:15;1.10;;;0.60;;
13335;SDS011;6737;51.480;11.962;2023-10-08T02:58:02;0.60;;;0.60;;
13335;SDS011;6737;51.480;11.962;2023-10-08T03:00:28;0.88;;;0.80;;
13335;SDS011;6737;51.480;11.962;2023-10-08T03:02:56;1.60;;;1.10;;
13335;SDS011;6737;51.480;11.962;2023-10-08T03:05:23;1.60;;;1.50;;
13335;SDS011;6737;51.480;11.962;2023-10-08T03:07:54;1.50;;;1.40;;
13335;SDS011;6737;51.480;11.962;2023-10-08T03:10:20;2.10;;;1.90;;
13335;SDS011;6737;51.480;11.962;2023-10-08T03:12:47;2.17;;;1.98;;
13335;SDS011;6737;51.480;11.962;2023-10-08T03:15:14;2.50;;;2.17;;
13335;SDS011;6737;51.480;11.962;2023-10-08T03:17:59;2.50;;;2.30;;
13335;SDS011;6737;51.480;11.962;2023-10-08T03:20:34;3.40;;;2.40;;
13335;SDS011;6737;51.480;11.962;2023-10-08T03:23:07;2.70;;;2.50;;
13335;SDS011;6737;51.480;11.962;2023-10-08T03:25:53;2.58;;;2.38;;
13335;SDS011;6737;51.480;11.962;2023-10-08T03:28:34;2.67;;;2.20;;
13335;SDS011;6737;51.480;11.962;2023-10-08T03:31:01;2.30;;;2.00;;
13335;SDS011;6737;51.480;11.962;2023-10-08T03:33:36;2.40;;;2.20;;
13335;SDS011;6737;51.480;11.962;2023-10-08T03:36:05;2.47;;;2.27;;
13335;SDS011;6737;51.480;11.962;2023-10-08T03:38:39;1.90;;;1.70;;
13335;SDS011;6737;51.480;11.962;2023-10-08T03:41:16;3.53;;;1.80;;
13335;SDS011;6737;51.480;11.962;2023-10-08T03:43:55;2.15;;;1.95;;
13335;SDS011;6737;51.480;11.962;2023-10-08T03:46:31;1.67;;;1.58;;
13335;SDS011;6737;51.480;11.962;2023-10-08T03:49:07;1.70;;;1.50;;
13335;SDS011;6737;51.480;11.962;2023-10-08T03:52:02;1.40;;;1.23;;
13335;SDS011;6737;51.480;11.962;2023-10-08T03:54:28;1.40;;;0.95;;
13335;SDS011;6737;51.480;11.962;2023-10-08T03:57:01;2.05;;;0.90;;
13335;SDS011;6737;51.480;11.962;2023-10-08T03:59:33;1.30;;;0.70;;
13335;SDS011;6737;51.480;11.962;2023-10-08T04:02:05;1.50;;;0.75;;
13335;SDS011;6737;51.480;11.962;2023-10-08T04:04:47;0.70;;;0.60;;
13335;SDS011;6737;51.480;11.962;2023-10-08T04:07:20;0.80;;;0.60;;
13335;SDS011;6737;51.480;11.962;2023-10-08T04:09:59;0.63;;;0.60;;
13335;SDS011;6737;51.480;11.962;2023-10-08T04:12:35;1.30;;;0.60;;
13335;SDS011;6737;51.480;11.962;2023-10-08T04:15:05;0.60;;;0.60;;
13335;SDS011;6737;51.480;11.962;2023-10-08T04:17:37;0.60;;;0.60;;
13335;SDS011;6737;51.480;11.962;2023-10-08T04:20:10;0.60;;;0.60;;
13335;SDS011;6737;51.480;11.962;2023-10-08T04:22:55;0.60;;;0.60;;
13335;SDS011;6737;51.480;11.962;2023-10-08T04:25:21;1.25;;;0.60;;
13335;SDS011;6737;51.480;11.962;2023-10-08T04:27:47;1.60;;;0.60;;
13335;SDS011;6737;51.480;11.962;2023-10-08T04:30:15;1.58;;;0.70;;
13335;SDS011;6737;51.480;11.962;2023-10-08T04:32:41;0.82;;;0.60;;
13335;SDS011;6737;51.480;11.962;2023-10-08T04:35:07;0.80;;;0.70;;
13335;SDS011;6737;51.480;11.962;2023-10-08T04:37:40;0.95;;;0.70;;
13335;SDS011;6737;51.480;11.962;2023-10-08T04:40:06;1.05;;;0.70;;
13335;SDS011;6737;51.480;11.962;2023-10-08T04:42:41;1.90;;;0.70;;
13335;SDS011;6737;51.480;11.962;2023-10-08T04:45:10;0.90;;;0.70;;
13335;SDS011;6737;51.480;11.962;2023-10-08T04:47:42;1.40;;;0.98;;
13335;SDS011;6737;51.480;11.962;2023-10-08T04:50:08;1.70;;;1.30;;
13335;SDS011;6737;51.480;11.962;2023-10-08T04:52:43;2.30;;;1.45;;
13335;SDS011;6737;51.480;11.962;2023-10-08T04:55:24;3.65;;;2.10;;
13335;SDS011;6737;51.480;11.962;2023-10-08T04:57:55;3.05;;;2.20;;
13335;SDS011;6737;51.480;11.962;2023-10-08T05:00:21;2.97;;;2.40;;
13335;SDS011;6737;51.480;11.962;2023-10-08T05:03:07;5.18;;;3.40;;
13335;SDS011;6737;51.480;11.962;2023-10-08T05:05:45;3.97;;;3.10;;
13335;SDS011;6737;51.480;11.962;2023-10-08T05:08:29;4.07;;;3.10;;
13335;SDS011;6737;51.480;11.962;2023-10-08T05:11:10;5.55;;;3.90;;
13335;SDS011;6737;51.480;11.962;2023-10-08T05:14:02;4.43;;;3.65;;
13335;SDS011;6737;51.480;11.962;2023-10-08T05:16:31;5.17;;;4.30;;
13335;SDS011;6737;51.480;11.962;2023-10-08T05:19:08;5.88;;;5.22;;
13335;SDS011;6737;51.480;11.962;2023-10-08T05:22:03;7.82;;;5.07;;
13335;SDS011;6737;51.480;11.962;2023-10-08T05:24:47;5.50;;;4.57;;
13335;SDS011;6737;51.480;11.962;2023-10-08T05:27:36;5.65;;;4.80;;
13335;SDS011;6737;51.480;11.962;2023-10-08T05:30:15;5.47;;;4.63;;
13335;SDS011;6737;51.480;11.962;2023-10-08T05:32:43;5.05;;;4.00;;
13335;SDS011;6737;51.480;11.962;2023-10-08T05:35:27;6.55;;;4.00;;
13335;SDS011;6737;51.480;11.962;2023-10-08T05:38:18;5.57;;;3.33;;
13335;SDS011;6737;51.480;11.962;2023-10-08T05:41:13;4.50;;;2.92;;
13335;SDS011;6737;51.480;11.962;2023-10-08T05:43:53;4.15;;;2.80;;
13335;SDS011;6737;51.480;11.962;2023-10-08T05:46:37;4.93;;;2.80;;
13335;SDS011;6737;51.480;11.962;2023-10-08T05:49:18;3.83;;;2.60;;
13335;SDS011;6737;51.480;11.962;2023-10-08T05:51:56;3.95;;;2.47;;
13335;SDS011;6737;51.480;11.962;2023-10-08T05:54:23;4.85;;;2.55;;
13335;SDS011;6737;51.480;11.962;2023-10-08T05:56:56;3.97;;;2.10;;
13335;SDS011;6737;51.480;11.962;2023-10-08T05:59:35;5.63;;;2.38;;
13335;SDS011;6737;51.480;11.962;2023-10-08T06:02:38;5.57;;;1.95;;
13335;SDS011;6737;51.480;11.962;2023-10-08T06:05:11;4.80;;;2.38;;
13335;SDS011;6737;51.480;11.962;2023-10-08T06:07:37;6.82;;;2.15;;
13335;SDS011;6737;51.480;11.962;2023-10-08T06:20:52;6.43;;;2.40;;
13335;SDS011;6737;51.480;11.962;2023-10-08T06:23:24;6.50;;;2.37;;
13335;SDS011;6737;51.480;11.962;2023-10-08T06:25:53;6.13;;;2.23;;
13335;SDS011;6737;51.480;11.962;2023-10-08T06:28:24;5.15;;;2.50;;
13335;SDS011;6737;51.480;11.962;2023-10-08T06:30:52;6.83;;;2.43;;
13335;SDS011;6737;51.480;11.962;2023-10-08T06:33:21;7.88;;;2.80;;
13335;SDS011;6737;51.480;11.962;2023-10-08T06:35:47;8.93;;;2.80;;
13335;SDS011;6737;51.480;11.962;2023-10-08T06:38:51;9.13;;;2.80;;
13335;SDS011;6737;51.480;11.962;2023-10-08T06:41:17;7.03;;;2.50;;
13335;SDS011;6737;51.480;11.962;2023-10-08T06:43:44;8.32;;;2.95;;
13335;SDS011;6737;51.480;11.962;2023-10-08T06:46:43;9.07;;;2.90;;
13335;SDS011;6737;51.480;11.962;2023-10-08T06:49:09;9.57;;;2.80;;
13335;SDS011;6737;51.480;11.962;2023-10-08T06:51:39;8.70;;;2.70;;
13335;SDS011;6737;51.480;11.962;2023-10-08T06:54:07;8.75;;;3.13;;
13335;SDS011;6737;51.480;11.962;2023-10-08T06:56:36;7.28;;;2.70;;
13335;SDS011;6737;51.480;11.962;2023-10-08T06:59:02;7.90;;;2.90;;
13335;SDS011;6737;51.480;11.962;2023-10-08T07:01:28;6.95;;;2.88;;
13335;SDS011;6737;51.480;11.962;2023-10-08T07:04:26;8.43;;;2.83;;
13335;SDS011;6737;51.480;11.962;2023-10-08T07:06:52;6.53;;;2.90;;
13335;SDS011;6737;51.480;11.962;2023-10-08T07:09:19;8.40;;;3.10;;
13335;SDS011;6737;51.480;11.962;2023-10-08T07:11:48;6.68;;;2.83;;
13335;SDS011;6737;51.480;11.962;2023-10-08T07:14:20;8.27;;;2.90;;
13335;SDS011;6737;51.480;11.962;2023-10-08T07:16:55;8.05;;;2.95;;
13335;SDS011;6737;51.480;11.962;2023-10-08T07:19:24;8.43;;;2.90;;
13335;SDS011;6737;51.480;11.962;2023-10-08T07:21:59;6.13;;;2.83;;
13335;SDS011;6737;51.480;11.962;2023-10-08T07:24:28;7.90;;;2.90;;
13335;SDS011;6737;51.480;11.962;2023-10-08T07:26:56;8.23;;;2.70;;
13335;SDS011;6737;51.480;11.962;2023-10-08T07:29:22;7.73;;;2.97;;
13335;SDS011;6737;51.480;11.962;2023-10-08T07:31:48;7.43;;;2.67;;
13335;SDS011;6737;51.480;11.962;2023-10-08T07:34:18;8.98;;;2.40;;
13335;SDS011;6737;51.480;11.962;2023-10-08T07:36:51;9.85;;;2.28;;
13335;SDS011;6737;51.480;11.962;2023-10-08T07:39:20;5.13;;;2.20;;
13335;SDS011;6737;51.480;11.962;2023-10-08T07:41:50;5.47;;;1.90;;
13335;SDS011;6737;51.480;11.962;2023-10-08T07:44:16;6.32;;;1.98;;
13335;SDS011;6737;51.480;11.962;2023-10-08T07:46:53;5.40;;;1.90;;
13335;SDS011;6737;51.480;11.962;2023-10-08T07:49:19;5.43;;;1.90;;
13335;SDS011;6737;51.480;11.962;2023-10-08T07:51:48;4.50;;;1.80;;
13335;SDS011;6737;51.480;11.962;2023-10-08T07:54:17;4.55;;;1.80;;
13335;SDS011;6737;51.480;11.962;2023-10-08T07:56:47;5.03;;;1.90;;
13335;SDS011;6737;51.480;11.962;2023-10-08T07:59:14;6.17;;;1.87;;
13335;SDS011;6737;51.480;11.962;2023-10-08T08:01:42;5.60;;;2.00;;
13335;SDS011;6737;51.480;11.962;2023-10-08T08:04:11;5.70;;;1.90;;
13335;SDS011;6737;51.480;11.962;2023-10-08T08:06:51;5.25;;;1.80;;
13335;SDS011;6737;51.480;11.962;2023-10-08T08:09:18;4.70;;;1.75;;
13335;SDS011;6737;51.480;11.962;2023-10-08T08:11:48;6.82;;;2.05;;
13335;SDS011;6737;51.480;11.962;2023-10-08T08:14:15;3.92;;;1.60;;
13335;SDS011;6737;51.480;11.962;2023-10-08T08:16:50;4.90;;;1.98;;
13335;SDS011;6737;51.480;11.962;2023-10-08T08:19:16;6.70;;;2.00;;
13335;SDS011;6737;51.480;11.962;2023-10-08T08:21:49;6.50;;;2.03;;
13335;SDS011;6737;51.480;11.962;2023-10-08T08:24:17;5.43;;;1.98;;
13335;SDS011;6737;51.480;11.962;2023-10-08T08:26:57;5.57;;;1.90;;
13335;SDS011;6737;51.480;11.962;2023-10-08T08:29:27;6.35;;;1.98;;
13335;SDS011;6737;51.480;11.962;2023-10-08T08:31:54;6.53;;;2.10;;
13335;SDS011;6737;51.480;11.962;2023-10-08T08:34:22;6.10;;;2.00;;
13335;SDS011;6737;51.480;11.962;2023-10-08T08:36:49;5.97;;;2.00;;
13335;SDS011;6737;51.480;11.962;2023-10-08T08:39:17;5.25;;;1.90;;
13335;SDS011;6737;51.480;11.962;2023-10-08T08:41:59;5.68;;;1.70;;
13335;SDS011;6737;51.480;11.962;2023-10-08T08:44:31;4.90;;;1.80;;
13335;SDS011;6737;51.480;11.962;2023-10-08T08:46:58;4.88;;;2.00;;
13335;SDS011;6737;51.480;11.962;2023-10-08T08:49:33;5.37;;;1.70;;
13335;SDS011;6737;51.480;11.962;2023-10-08T08:52:02;5.60;;;1.85;;
13335;SDS011;6737;51.480;11.962;2023-10-08T08:54:29;5.30;;;1.80;;
13335;SDS011;6737;51.480;11.962;2023-10-08T08:57:01;6.80;;;2.03;;
13335;SDS011;6737;51.480;11.962;2023-10-08T09:00:00;4.90;;;1.90;;
13335;SDS011;6737;51.480;11.962;2023-10-08T09:02:25;4.45;;;1.70;;
13335;SDS011;6737;51.480;11.962;2023-10-08T09:04:50;4.95;;;1.90;;
13335;SDS011;6737;51.480;11.962;2023-10-08T09:07:19;4.85;;;1.67;;
13335;SDS011;6737;51.480;11.962;2023-10-08T09:09:46;5.33;;;1.80;;
13335;SDS011;6737;51.480;11.962;2023-10-08T09:12:17;5.93;;;2.08;;
13335;SDS011;6737;51.480;11.962;2023-10-08T09:14:46;5.20;;;1.92;;
13335;SDS011;6737;51.480;11.962;2023-10-08T09:17:13;4.53;;;1.97;;
13335;SDS011;6737;51.480;11.962;2023-10-08T09:19:40;5.10;;;2.00;;
13335;SDS011;6737;51.480;11.962;2023-10-08T09:22:08;7.70;;;1.90;;
13335;SDS011;6737;51.480;11.962;2023-10-08T09:24:38;5.38;;;2.00;;
13335;SDS011;6737;51.480;11.962;2023-10-08T09:27:06;5.53;;;1.88;;
13335;SDS011;6737;51.480;11.962;2023-10-08T09:29:34;6.43;;;2.10;;
13335;SDS011;6737;51.480;11.962;2023-10-08T09:32:09;4.82;;;1.90;;
13335;SDS011;6737;51.480;11.962;2023-10-08T09:34:36;5.03;;;1.85;;
13335;SDS011;6737;51.480;11.962;2023-10-08T09:37:01;5.53;;;1.93;;
13335;SDS011;6737;51.480;11.962;2023-10-08T09:39:29;5.47;;;2.05;;
13335;SDS011;6737;51.480;11.962;2023-10-08T09:42:00;6.00;;;2.10;;
13335;SDS011;6737;51.480;11.962;2023-10-08T09:44:28;8.05;;;2.50;;
13335;SDS011;6737;51.480;11.962;2023-10-08T09:47:12;6.70;;;2.50;;
13335;SDS011;6737;51.480;11.962;2023-10-08T09:49:41;6.60;;;2.50;;
13335;SDS011;6737;51.480;11.962;2023-10-08T09:52:11;6.70;;;2.75;;
13335;SDS011;6737;51.480;11.962;2023-10-08T09:57:35;6.90;;;2.65;;
13335;SDS011;6737;51.480;11.962;2023-10-08T10:00:03;6.03;;;2.88;;
13335;SDS011;6737;51.480;11.962;2023-10-08T10:02:36;7.15;;;2.88;;
13335;SDS011;6737;51.480;11.962;2023-10-08T10:05:03;6.60;;;2.80;;
13335;SDS011;6737;51.480;11.962;2023-10-08T10:07:31;7.77;;;2.80;;
13335;SDS011;6737;51.480;11.962;2023-10-08T10:09:57;7.93;;;2.90;;
13335;SDS011;6737;51.480;11.962;2023-10-08T10:12:26;7.05;;;2.80;;
13335;SDS011;6737;51.480;11.962;2023-10-08T10:14:54;6.90;;;2.92;;
13335;SDS011;6737;51.480;11.962;2023-10-08T10:19:57;9.05;;;3.10;;
13335;SDS011;6737;51.480;11.962;2023-10-08T10:22:33;6.07;;;2.58;;
13335;SDS011;6737;51.480;11.962;2023-10-08T10:25:00;7.00;;;2.78;;
13335;SDS011;6737;51.480;11.962;2023-10-08T10:28:25;7.53;;;2.80;;
13335;SDS011;6737;51.480;11.962;2023-10-08T10:30:26;6.75;;;2.75;;
13335;SDS011;6737;51.480;11.962;2023-10-08T10:32:54;8.07;;;2.85;;
13335;SDS011;6737;51.480;11.962;2023-10-08T10:35:25;8.35;;;3.05;;
13335;SDS011;6737;51.480;11.962;2023-10-08T10:37:53;7.07;;;2.70;;
13335;SDS011;6737;51.480;11.962;2023-10-08T10:40:28;6.20;;;2.80;;
13335;SDS011;6737;51.480;11.962;2023-10-08T10:43:04;8.57;;;3.10;;
13335;SDS011;6737;51.480;11.962;2023-10-08T10:45:41;6.90;;;3.10;;
13335;SDS011;6737;51.480;11.962;2023-10-08T10:48:13;7.53;;;2.93;;
13335;SDS011;6737;51.480;11.962;2023-10-08T10:50:48;9.02;;;3.05;;
13335;SDS011;6737;51.480;11.962;2023-10-08T10:53:36;8.10;;;2.97;;
13335;SDS011;6737;51.480;11.962;2023-10-08T10:56:17;7.55;;;3.10;;
13335;SDS011;6737;51.480;11.962;2023-10-08T10:58:47;8.02;;;3.03;;
13335;SDS011;6737;51.480;11.962;2023-10-08T11:01:27;7.57;;;3.10;;
13335;SDS011;6737;51.480;11.962;2023-10-08T11:04:10;9.40;;;3.25;;
13335;SDS011;6737;51.480;11.962;2023-10-08T11:06:44;8.10;;;2.95;;
13335;SDS011;6737;51.480;11.962;2023-10-08T11:09:12;8.18;;;3.40;;
13335;SDS011;6737;51.480;11.962;2023-10-08T11:11:52;7.57;;;3.05;;
13335;SDS011;6737;51.480;11.962;2023-10-08T11:14:20;9.30;;;3.40;;
13335;SDS011;6737;51.480;11.962;2023-10-08T11:16:49;7.90;;;3.08;;
13335;SDS011;6737;51.480;11.962;2023-10-08T11:19:18;7.90;;;3.47;;
13335;SDS011;6737;51.480;11.962;2023-10-08T11:21:49;9.03;;;3.20;;
13335;SDS011;6737;51.480;11.962;2023-10-08T11:24:26;7.90;;;3.40;;
13335;SDS011;6737;51.480;11.962;2023-10-08T11:27:01;7.60;;;3.20;;
13335;SDS011;6737;51.480;11.962;2023-10-08T11:29:46;7.60;;;3.08;;
13335;SDS011;6737;51.480;11.962;2023-10-08T11:32:16;9.55;;;3.47;;
13335;SDS011;6737;51.480;11.962;2023-10-08T11:34:46;6.35;;;3.40;;
13335;SDS011;6737;51.480;11.962;2023-10-08T11:37:31;8.82;;;3.30;;
13335;SDS011;6737;51.480;11.962;2023-10-08T11:40:01;9.00;;;3.58;;
13335;SDS011;6737;51.480;11.962;2023-10-08T11:42:55;8.87;;;3.57;;
13335;SDS011;6737;51.480;11.962;2023-10-08T11:45:25;7.65;;;3.83;;
13335;SDS011;6737;51.480;11.962;2023-10-08T11:48:06;7.68;;;3.35;;
13335;SDS011;6737;51.480;11.962;2023-10-08T11:50:37;9.77;;;3.35;;
13335;SDS011;6737;51.480;11.962;2023-10-08T11:53:04;7.05;;;3.20;;
13335;SDS011;6737;51.480;11.962;2023-10-08T11:55:34;6.97;;;2.90;;
13335;SDS011;6737;51.480;11.962;2023-10-08T11:58:01;8.37;;;3.33;;
13335;SDS011;6737;51.480;11.962;2023-10-08T12:00:44;7.70;;;3.00;;
13335;SDS011;6737;51.480;11.962;2023-10-08T12:03:10;7.43;;;2.72;;
13335;SDS011;6737;51.480;11.962;2023-10-08T12:05:38;9.90;;;3.10;;
13335;SDS011;6737;51.480;11.962;2023-10-08T12:08:27;7.75;;;2.78;;
13335;SDS011;6737;51.480;11.962;2023-10-08T12:10:53;5.97;;;2.72;;
13335;SDS011;6737;51.480;11.962;2023-10-08T12:13:20;10.40;;;3.17;;
13335;SDS011;6737;51.480;11.962;2023-10-08T12:15:53;6.47;;;2.60;;
13335;SDS011;6737;51.480;11.962;2023-10-08T12:18:37;6.22;;;2.53;;
13335;SDS011;6737;51.480;11.962;2023-10-08T12:21:09;6.77;;;2.80;;
13335;SDS011;6737;51.480;11.962;2023-10-08T12:23:40;5.50;;;2.65;;
13335;SDS011;6737;51.480;11.962;2023-10-08T12:26:08;8.63;;;2.78;;
13335;SDS011;6737;51.480;11.962;2023-10-08T12:28:35;6.53;;;2.63;;
13335;SDS011;6737;51.480;11.962;2023-10-08T12:31:02;7.13;;;2.78;;
13335;SDS011;6737;51.480;11.962;2023-10-08T12:33:29;7.80;;;2.90;;
13335;SDS011;6737;51.480;11.962;2023-10-08T12:35:57;8.23;;;2.80;;
13335;SDS011;6737;51.480;11.962;2023-10-08T12:38:23;8.50;;;2.70;;
13335;SDS011;6737;51.480;11.962;2023-10-08T12:40:53;7.13;;;2.60;;
13335;SDS011;6737;51.480;11.962;2023-10-08T12:43:20;7.25;;;2.60;;
13335;SDS011;6737;51.480;11.962;2023-10-08T12:45:47;7.90;;;2.42;;
13335;SDS011;6737;51.480;11.962;2023-10-08T12:50:49;7.50;;;2.38;;
13335;SDS011;6737;51.480;11.962;2023-10-08T12:53:25;7.18;;;2.55;;
13335;SDS011;6737;51.480;11.962;2023-10-08T12:56:01;6.13;;;2.35;;
13335;SDS011;6737;51.480;11.962;2023-10-08T12:58:34;6.10;;;2.40;;
13335;SDS011;6737;51.480;11.962;2023-10-08T13:01:07;8.10;;;2.60;;
13335;SDS011;6737;51.480;11.962;2023-10-08T13:03:35;8.43;;;2.40;;
13335;SDS011;6737;51.480;11.962;2023-10-08T13:06:22;5.90;;;2.53;;
13335;SDS011;6737;51.480;11.962;2023-10-08T13:08:53;7.53;;;2.35;;
13335;SDS011;6737;51.480;11.962;2023-10-08T13:11:27;7.37;;;2.40;;
13335;SDS011;6737;51.480;11.962;2023-10-08T13:13:59;8.07;;;2.30;;
13335;SDS011;6737;51.480;11.962;2023-10-08T13:16:26;5.55;;;2.20;;
13335;SDS011;6737;51.480;11.962;2023-10-08T13:19:03;9.73;;;2.45;;
13335;SDS011;6737;51.480;11.962;2023-10-08T13:21:29;6.18;;;2.28;;
13335;SDS011;6737;51.480;11.962;2023-10-08T13:23:57;6.28;;;2.10;;
13335;SDS011;6737;51.480;11.962;2023-10-08T13:26:25;6.28;;;2.30;;
13335;SDS011;6737;51.480;11.962;2023-10-08T13:28:56;7.30;;;2.05;;
13335;SDS011;6737;51.480;11.962;2023-10-08T13:31:23;5.47;;;1.95;;
13335;SDS011;6737;51.480;11.962;2023-10-08T13:33:50;7.50;;;2.10;;
13335;SDS011;6737;51.480;11.962;2023-10-08T13:36:18;6.22;;;2.13;;
13335;SDS011;6737;51.480;11.962;2023-10-08T13:38:44;5.43;;;1.98;;
13335;SDS011;6737;51.480;11.962;2023-10-08T13:41:11;7.00;;;2.20;;
13335;SDS011;6737;51.480;11.962;2023-10-08T13:43:43;4.90;;;1.98;;
13335;SDS011;6737;51.480;11.962;2023-10-08T13:46:19;5.95;;;1.90;;
13335;SDS011;6737;51.480;11.962;2023-10-08T13:48:48;5.47;;;2.10;;
13335;SDS011;6737;51.480;11.962;2023-10-08T13:51:15;6.20;;;1.98;;
13335;SDS011;6737;51.480;11.962;2023-10-08T13:54:04;5.35;;;2.00;;
13335;SDS011;6737;51.480;11.962;2023-10-08T13:56:34;6.47;;;1.97;;
13335;SDS011;6737;51.480;11.962;2023-10-08T13:59:03;4.28;;;1.92;;
13335;SDS011;6737;51.480;11.962;2023-10-08T14:01:31;6.10;;;2.20;;
13335;SDS011;6737;51.480;11.962;2023-10-08T14:04:00;6.22;;;2.00;;
13335;SDS011;6737;51.480;11.962;2023-10-08T14:06:35;5.13;;;2.07;;
13335;SDS011;6737;51.480;11.962;2023-10-08T14:09:03;7.93;;;2.10;;
13335;SDS011;6737;51.480;11.962;2023-10-08T14:11:37;5.07;;;2.10;;
13335;SDS011;6737;51.480;11.962;2023-10-08T14:14:03;5.47;;;2.17;;
13335;SDS011;6737;51.480;11.962;2023-10-08T14:16:36;6.43;;;2.28;;
13335;SDS011;6737;51.480;11.962;2023-10-08T14:19:07;5.90;;;2.20;;
13335;SDS011;6737;51.480;11.962;2023-10-08T14:21:40;5.45;;;2.40;;
13335;SDS011;6737;51.480;11.962;2023-10-08T14:24:20;5.00;;;2.30;;
13335;SDS011;6737;51.480;11.962;2023-10-08T14:26:46;6.10;;;2.22;;
13335;SDS011;6737;51.480;11.962;2023-10-08T14:29:20;3.92;;;2.00;;
13335;SDS011;6737;51.480;11.962;2023-10-08T14:31:46;5.45;;;1.92;;
13335;SDS011;6737;51.480;11.962;2023-10-08T14:34:17;5.93;;;2.47;;
13335;SDS011;6737;51.480;11.962;2023-10-08T14:36:49;4.60;;;2.00;;
13335;SDS011;6737;51.480;11.962;2023-10-08T14:39:34;6.15;;;2.10;;
13335;SDS011;6737;51.480;11.962;2023-10-08T14:42:19;6.82;;;2.42;;
13335;SDS011;6737;51.480;11.962;2023-10-08T14:45:03;5.35;;;2.80;;
13335;SDS011;6737;51.480;11.962;2023-10-08T14:47:39;6.15;;;2.13;;
13335;SDS011;6737;51.480;11.962;2023-10-08T14:50:06;8.40;;;2.25;;
13335;SDS011;6737;51.480;11.962;2023-10-08T14:52:42;5.05;;;1.90;;
13335;SDS011;6737;51.480;11.962;2023-10-08T14:55:09;3.85;;;1.95;;
13335;SDS011;6737;51.480;11.962;2023-10-08T14:57:36;4.65;;;1.90;;
13335;SDS011;6737;51.480;11.962;2023-10-08T15:00:02;4.60;;;1.70;;
13335;SDS011;6737;51.480;11.962;2023-10-08T15:02:30;5.68;;;1.83;;
13335;SDS011;6737;51.480;11.962;2023-10-08T15:04:58;4.78;;;1.98;;
13335;SDS011;6737;51.480;11.962;2023-10-08T15:07:26;6.30;;;2.00;;
13335;SDS011;6737;51.480;11.962;2023-10-08T15:09:53;6.32;;;1.90;;
13335;SDS011;6737;51.480;11.962;2023-10-08T15:12:23;5.30;;;2.00;;
13335;SDS011;6737;51.480;11.962;2023-10-08T15:14:51;10.33;;;4.40;;
13335;SDS011;6737;51.480;11.962;2023-10-08T15:17:17;10.63;;;5.80;;
13335;SDS011;6737;51.480;11.962;2023-10-08T15:19:43;7.20;;;3.73;;
13335;SDS011;6737;51.480;11.962;2023-10-08T15:22:11;4.82;;;2.50;;
13335;SDS011;6737;51.480;11.962;2023-10-08T15:24:38;6.07;;;2.30;;
13335;SDS011;6737;51.480;11.962;2023-10-08T15:27:05;5.03;;;2.00;;
13335;SDS011;6737;51.480;11.962;2023-10-08T15:29:31;5.07;;;2.00;;
13335;SDS011;6737;51.480;11.962;2023-10-08T15:31:58;5.83;;;1.87;;
13335;SDS011;6737;51.480;11.962;2023-10-08T15:34:24;4.72;;;1.65;;
13335;SDS011;6737;51.480;11.962;2023-10-08T15:36:54;7.13;;;2.00;;